createdAt,value
2022-11-27T00:00:53.913Z,-7.11
2022-11-27T00:02:56.298Z,-7.15
2022-11-27T00:04:58.383Z,-7.11
2022-11-27T00:07:00.526Z,-7.23
2022-11-27T00:09:06.424Z,-7.20
2022-11-27T00:11:14.864Z,-7.26
2022-11-27T00:13:17.394Z,-7.10
2022-11-27T00:15:19.503Z,-7.13
2022-11-27T00:17:21.661Z,-7.24
2022-11-27T00:19:23.690Z,-7.11
2022-11-27T00:21:32.980Z,-7.00
2022-11-27T00:23:35.702Z,-7.11
2022-11-27T00:25:37.914Z,-6.97
2022-11-27T00:27:39.884Z,-7.03
2022-11-27T00:29:44.313Z,-7.24
2022-11-27T00:31:46.518Z,-7.08
2022-11-27T00:33:49.039Z,-7.06
2022-11-27T00:35:51.088Z,-7.12
2022-11-27T00:37:53.275Z,-7.08
2022-11-27T00:39:55.447Z,-7.21
2022-11-27T00:41:57.589Z,-7.16
2022-11-27T00:43:59.737Z,-7.24
2022-11-27T00:46:02.247Z,-7.15
2022-11-27T00:48:04.635Z,-7.39
2022-11-27T00:50:07.569Z,-7.46
2022-11-27T00:52:09.853Z,-7.39
2022-11-27T00:54:11.879Z,-7.21
2022-11-27T00:56:20.361Z,-7.27
2022-11-27T00:58:23.224Z,-7.17
2022-11-27T01:00:25.350Z,-7.28
2022-11-27T01:02:27.491Z,-7.26
2022-11-27T01:04:30.450Z,-7.29
2022-11-27T01:06:33.584Z,-7.34
2022-11-27T01:08:35.642Z,-7.33
2022-11-27T01:10:37.739Z,-7.20
2022-11-27T01:12:39.876Z,-7.16
2022-11-27T01:14:42.049Z,-7.20
2022-11-27T01:16:44.310Z,-7.20
2022-11-27T01:18:47.804Z,-7.22
2022-11-27T01:20:52.945Z,-7.18
2022-11-27T01:22:55.019Z,-7.20
2022-11-27T01:24:57.227Z,-7.08
2022-11-27T01:26:59.269Z,-7.08
2022-11-27T01:29:01.646Z,-7.13
2022-11-27T01:31:08.130Z,-7.06
2022-11-27T01:33:10.341Z,-7.10
2022-11-27T01:35:12.389Z,-7.01
2022-11-27T01:37:14.480Z,-6.99
2022-11-27T01:39:20.139Z,-7.22
2022-11-27T01:41:37.169Z,-7.12
2022-11-27T01:43:41.273Z,-7.12
2022-11-27T01:45:45.576Z,-7.19
2022-11-27T01:47:52.255Z,-7.12
2022-11-27T01:49:56.950Z,-7.13
2022-11-27T01:52:04.910Z,-7.06
2022-11-27T01:54:10.599Z,-7.12
2022-11-27T01:56:13.433Z,-7.23
2022-11-27T01:58:22.236Z,-7.16
2022-11-27T02:00:25.395Z,-7.06
2022-11-27T02:02:28.191Z,-7.16
2022-11-27T02:04:33.239Z,-7.05
2022-11-27T02:06:35.459Z,-6.99
2022-11-27T02:08:38.279Z,-7.07
2022-11-27T02:10:48.150Z,-6.96
2022-11-27T02:12:59.128Z,-6.85
2022-11-27T02:15:09.413Z,-6.79
2022-11-27T02:17:22.865Z,-6.87
2022-11-27T02:19:40.375Z,-6.65
2022-11-27T02:22:02.960Z,-6.77
2022-11-27T02:24:29.433Z,-6.86
2022-11-27T02:26:52.338Z,-6.84
2022-11-27T02:29:04.189Z,-6.80
2022-11-27T02:31:14.223Z,-6.88
2022-11-27T02:33:20.213Z,-6.90
2022-11-27T02:35:48.150Z,-6.97
2022-11-27T02:38:21.143Z,-6.94
2022-11-27T02:40:41.786Z,-6.99
2022-11-27T02:42:54.882Z,-7.00
2022-11-27T02:45:02.658Z,-6.98
2022-11-27T02:47:06.198Z,-6.94
2022-11-27T02:49:16.414Z,-6.99
2022-11-27T02:51:22.771Z,-6.98
2022-11-27T02:53:38.020Z,-6.97
2022-11-27T02:55:41.929Z,-7.09
2022-11-27T02:57:46.113Z,-7.11
2022-11-27T02:59:50.423Z,-6.93
2022-11-27T03:01:57.615Z,-6.84
2022-11-27T03:04:02.920Z,-6.85
2022-11-27T03:06:18.728Z,-6.87
2022-11-27T03:08:27.610Z,-6.94
2022-11-27T03:10:40.461Z,-6.81
2022-11-27T03:12:42.488Z,-6.89
2022-11-27T03:14:45.601Z,-6.86
2022-11-27T03:16:56.242Z,-6.95
2022-11-27T03:19:08.135Z,-6.85
2022-11-27T03:21:30.707Z,-6.83
2022-11-27T03:23:32.850Z,-6.80
2022-11-27T03:25:34.934Z,-6.70
2022-11-27T03:27:46.343Z,-6.80
2022-11-27T03:29:52.938Z,-6.64
2022-11-27T03:31:56.598Z,-6.75
2022-11-27T03:33:58.816Z,-6.76
2022-11-27T03:36:00.978Z,-6.80
2022-11-27T03:38:03.255Z,-6.75
2022-11-27T03:40:05.742Z,-6.71
2022-11-27T03:42:32.203Z,-6.70
2022-11-27T03:44:50.657Z,-6.84
2022-11-27T03:47:01.669Z,-6.73
2022-11-27T03:49:14.826Z,-6.85
2022-11-27T03:51:41.801Z,-6.75
2022-11-27T03:54:05.549Z,-6.80
2022-11-27T03:56:19.178Z,-6.72
2022-11-27T03:58:23.877Z,-6.91
2022-11-27T04:00:28.320Z,-6.84
2022-11-27T04:02:39.382Z,-6.87
2022-11-27T04:04:41.867Z,-6.71
2022-11-27T04:06:44.175Z,-6.72
2022-11-27T04:08:47.612Z,-6.64
2022-11-27T04:10:49.866Z,-6.72
2022-11-27T04:12:51.896Z,-6.69
2022-11-27T04:14:54.006Z,-6.71
2022-11-27T04:16:56.110Z,-6.71
2022-11-27T04:18:58.106Z,-6.62
2022-11-27T04:21:00.199Z,-6.55
2022-11-27T04:23:02.193Z,-6.57
2022-11-27T04:25:05.086Z,-6.55
2022-11-27T04:27:07.108Z,-6.67
2022-11-27T04:29:09.520Z,-6.46
2022-11-27T04:31:11.464Z,-6.47
2022-11-27T04:33:13.493Z,-6.52
2022-11-27T04:35:15.665Z,-6.50
2022-11-27T04:37:17.784Z,-6.51
2022-11-27T04:39:20.400Z,-6.56
2022-11-27T04:41:22.653Z,-6.33
2022-11-27T04:43:24.665Z,-6.34
2022-11-27T04:45:26.769Z,-6.38
2022-11-27T04:47:28.813Z,-6.38
2022-11-27T04:49:31.386Z,-6.23
2022-11-27T04:51:33.885Z,-6.26
2022-11-27T04:53:41.596Z,-6.27
2022-11-27T04:55:43.650Z,-6.25
2022-11-27T04:57:46.117Z,-6.44
2022-11-27T04:59:48.392Z,-6.22
2022-11-27T05:01:50.786Z,-6.20
2022-11-27T05:03:52.906Z,-6.39
2022-11-27T05:05:56.768Z,-6.39
2022-11-27T05:07:58.913Z,-6.43
2022-11-27T05:10:00.976Z,-6.53
2022-11-27T05:12:03.311Z,-6.48
2022-11-27T05:14:18.380Z,-6.51
2022-11-27T05:16:20.472Z,-6.56
2022-11-27T05:18:22.702Z,-6.56
2022-11-27T05:20:24.738Z,-6.62
2022-11-27T05:22:26.899Z,-6.52
2022-11-27T05:24:32.592Z,-6.51
2022-11-27T05:26:35.495Z,-6.53
2022-11-27T05:28:37.527Z,-6.46
2022-11-27T05:30:39.661Z,-6.56
2022-11-27T05:32:41.661Z,-6.52
2022-11-27T05:34:43.953Z,-6.51
2022-11-27T05:36:45.970Z,-6.49
2022-11-27T05:38:48.308Z,-6.50
2022-11-27T05:40:50.306Z,-6.40
2022-11-27T05:42:52.433Z,-6.34
2022-11-27T05:44:58.254Z,-6.45
2022-11-27T05:47:01.549Z,-6.40
2022-11-27T05:49:03.758Z,-6.30
2022-11-27T05:51:06.251Z,-6.25
2022-11-27T05:53:08.737Z,-6.15
2022-11-27T05:55:11.612Z,-6.54
2022-11-27T05:57:15.224Z,-6.21
2022-11-27T05:59:17.538Z,-6.26
2022-11-27T06:01:19.966Z,-6.33
2022-11-27T06:03:21.893Z,-6.24
2022-11-27T06:05:24.478Z,-6.33
2022-11-27T06:07:26.585Z,-6.21
2022-11-27T06:09:28.718Z,-6.27
2022-11-27T06:11:30.985Z,-6.43
2022-11-27T06:13:32.994Z,-6.24
2022-11-27T06:15:37.592Z,-6.17
2022-11-27T06:17:39.834Z,-6.31
2022-11-27T06:19:42.239Z,-6.17
2022-11-27T06:21:46.649Z,-6.31
2022-11-27T06:23:49.184Z,-6.13
2022-11-27T06:25:51.199Z,-6.09
2022-11-27T06:27:53.315Z,-6.05
2022-11-27T06:29:55.463Z,-6.06
2022-11-27T06:31:57.549Z,-5.99
2022-11-27T06:34:00.270Z,-5.99
2022-11-27T06:36:03.811Z,-5.92
2022-11-27T06:38:05.951Z,-5.86
2022-11-27T06:40:08.662Z,-5.99
2022-11-27T06:42:10.866Z,-5.86
2022-11-27T06:44:12.997Z,-5.95
2022-11-27T06:46:18.183Z,-5.87
2022-11-27T06:48:20.285Z,-5.79
2022-11-27T06:50:22.962Z,-5.75
2022-11-27T06:52:24.971Z,-5.64
2022-11-27T06:54:27.124Z,-5.70
2022-11-27T06:56:34.529Z,-5.50
2022-11-27T06:58:37.629Z,-5.47
2022-11-27T07:00:39.906Z,-5.43
2022-11-27T07:02:42.246Z,-5.40
2022-11-27T07:04:45.038Z,-5.49
2022-11-27T07:06:47.233Z,-5.43
2022-11-27T07:08:49.356Z,-5.29
2022-11-27T07:10:51.514Z,-5.21
2022-11-27T07:12:54.328Z,-5.33
2022-11-27T07:14:58.155Z,-5.47
2022-11-27T07:17:01.857Z,-5.43
2022-11-27T07:19:10.545Z,-5.48
2022-11-27T07:21:13.192Z,-5.47
2022-11-27T07:23:15.099Z,-5.44
2022-11-27T07:25:17.511Z,-5.88
2022-11-27T07:27:19.605Z,-5.34
2022-11-27T07:29:21.591Z,-5.44
2022-11-27T07:31:28.298Z,-5.44
2022-11-27T07:33:30.514Z,-5.44
2022-11-27T07:35:32.577Z,-5.48
2022-11-27T07:37:34.811Z,-5.39
2022-11-27T07:40:01.000Z,-5.20
2022-11-27T07:42:00.166Z,-5.22
2022-11-27T07:44:09.910Z,-5.12
2022-11-27T07:46:20.801Z,-5.06
2022-11-27T07:48:23.151Z,-5.04
2022-11-27T07:50:25.192Z,-5.51
2022-11-27T07:52:27.515Z,-5.09
2022-11-27T07:54:30.907Z,-5.02
2022-11-27T07:56:33.023Z,-5.17
2022-11-27T07:58:35.638Z,-5.08
2022-11-27T08:00:38.237Z,-5.28
2022-11-27T08:02:40.373Z,-5.12
2022-11-27T08:04:42.761Z,-4.98
2022-11-27T08:06:45.009Z,-5.00
2022-11-27T08:08:47.727Z,-4.95
2022-11-27T08:10:49.677Z,-5.07
2022-11-27T08:12:51.716Z,-4.91
2022-11-27T08:14:53.716Z,-4.91
2022-11-27T08:16:56.141Z,-4.90
2022-11-27T08:18:58.713Z,-4.97
2022-11-27T08:21:01.304Z,-4.91
2022-11-27T08:23:03.471Z,-4.89
2022-11-27T08:25:06.122Z,-4.82
2022-11-27T08:27:16.506Z,-4.70
2022-11-27T08:29:20.916Z,-4.61
2022-11-27T08:31:23.550Z,-4.52
2022-11-27T08:33:29.257Z,-4.39
2022-11-27T08:35:31.430Z,-4.62
2022-11-27T08:37:33.838Z,-4.62
2022-11-27T08:39:36.484Z,-4.68
2022-11-27T08:41:38.806Z,-4.63
2022-11-27T08:43:41.269Z,-4.52
2022-11-27T08:45:43.708Z,-4.52
2022-11-27T08:47:46.341Z,-4.57
2022-11-27T08:49:49.145Z,-4.47
2022-11-27T08:51:51.155Z,-4.50
2022-11-27T08:53:54.074Z,-4.47
2022-11-27T08:55:56.036Z,-4.49
2022-11-27T08:57:58.807Z,-4.50
2022-11-27T09:00:01.005Z,-4.43
2022-11-27T09:02:03.641Z,-4.48
2022-11-27T09:04:05.957Z,-4.45
2022-11-27T09:06:13.578Z,-4.44
2022-11-27T09:08:20.507Z,-4.30
2022-11-27T09:10:23.278Z,-4.28
2022-11-27T09:12:25.602Z,-4.11
2022-11-27T09:14:27.784Z,-4.18
2022-11-27T09:16:30.813Z,-4.24
2022-11-27T09:18:33.543Z,-4.08
2022-11-27T09:20:35.782Z,-4.00
2022-11-27T09:22:37.951Z,-3.84
2022-11-27T09:24:40.321Z,-3.93
2022-11-27T09:26:42.610Z,-4.03
2022-11-27T09:28:45.285Z,-3.99
2022-11-27T09:30:48.043Z,-4.06
2022-11-27T09:32:50.326Z,-4.07
2022-11-27T09:34:52.445Z,-4.10
2022-11-27T09:36:54.542Z,-4.19
2022-11-27T09:38:59.253Z,-4.04
2022-11-27T09:41:16.331Z,-4.05
2022-11-27T09:43:27.516Z,-4.06
2022-11-27T09:45:30.649Z,-4.01
2022-11-27T09:47:41.140Z,-3.96
2022-11-27T09:49:50.621Z,-4.01
2022-11-27T09:52:03.624Z,-3.98
2022-11-27T09:54:18.873Z,-3.96
2022-11-27T09:56:21.052Z,-4.02
2022-11-27T09:58:38.214Z,-3.88
2022-11-27T10:00:40.511Z,-3.92
2022-11-27T10:02:43.575Z,-3.90
2022-11-27T10:05:12.304Z,-3.85
2022-11-27T10:07:10.779Z,-3.96
2022-11-27T10:09:37.227Z,-3.79
2022-11-27T10:11:54.542Z,-3.63
2022-11-27T10:14:02.887Z,-3.63
2022-11-27T10:16:14.012Z,-3.66
2022-11-27T10:18:45.815Z,-3.72
2022-11-27T10:20:52.315Z,-3.80
2022-11-27T10:23:28.409Z,-3.61
2022-11-27T10:25:44.612Z,-3.54
2022-11-27T10:28:06.054Z,-3.55
2022-11-27T10:30:28.964Z,-3.42
2022-11-27T10:32:54.775Z,-3.34
2022-11-27T10:35:03.712Z,-3.20
2022-11-27T10:37:32.707Z,-3.20
2022-11-27T10:39:41.922Z,-3.12
2022-11-27T10:41:57.552Z,-3.15
2022-11-27T10:44:18.451Z,-3.10
2022-11-27T10:46:28.068Z,-2.97
2022-11-27T10:48:30.554Z,-3.11
2022-11-27T10:50:33.855Z,-3.34
2022-11-27T10:52:35.825Z,-3.32
2022-11-27T10:54:39.975Z,-3.30
2022-11-27T10:56:57.213Z,-3.23
2022-11-27T10:59:11.379Z,-3.32
2022-11-27T11:01:19.424Z,-3.44
2022-11-27T11:03:22.859Z,-3.58
2022-11-27T11:06:04.828Z,-3.49
2022-11-27T11:07:57.204Z,-3.48
2022-11-27T11:09:59.432Z,-3.52
2022-11-27T11:12:09.393Z,-3.67
2022-11-27T11:14:22.832Z,-3.85
2022-11-27T11:16:34.833Z,-3.99
2022-11-27T11:18:49.944Z,-3.85
2022-11-27T11:20:58.652Z,-3.85
2022-11-27T11:23:00.703Z,-3.97
2022-11-27T11:25:02.825Z,-3.93
2022-11-27T11:27:16.356Z,-3.86
2022-11-27T11:29:32.600Z,-3.93
2022-11-27T11:31:40.721Z,-3.86
2022-11-27T11:33:59.714Z,-4.09
2022-11-27T11:36:10.884Z,-4.06
2022-11-27T11:38:18.625Z,-3.97
2022-11-27T11:40:20.657Z,-3.89
2022-11-27T11:42:27.409Z,-3.85
2022-11-27T11:44:35.971Z,-3.85
2022-11-27T11:46:40.287Z,-3.82
2022-11-27T11:49:05.025Z,-3.82
2022-11-27T11:51:09.900Z,-3.82
2022-11-27T11:53:33.237Z,-3.79
2022-11-27T11:55:43.798Z,-3.99
2022-11-27T11:58:21.208Z,-4.04
2022-11-27T12:00:31.486Z,-4.12
2022-11-27T12:02:58.041Z,-4.14
2022-11-27T12:05:03.672Z,-4.00
2022-11-27T12:07:20.759Z,-3.89
2022-11-27T12:09:28.060Z,-3.91
2022-11-27T12:11:52.223Z,-4.02
2022-11-27T12:14:27.164Z,-4.04
2022-11-27T12:16:38.325Z,-4.06
2022-11-27T12:19:23.643Z,-4.15
2022-11-27T12:21:27.964Z,-4.27
2022-11-27T12:23:57.198Z,-4.36
2022-11-27T12:26:32.462Z,-4.26
2022-11-27T12:28:58.784Z,-4.43
2022-11-27T12:31:12.284Z,-4.56
2022-11-27T12:33:46.737Z,-4.45
2022-11-27T12:36:26.914Z,-4.48
2022-11-27T12:39:01.412Z,-4.69
2022-11-27T12:41:34.914Z,-4.75
2022-11-27T12:43:48.092Z,-4.66
2022-11-27T12:45:54.626Z,-4.81
2022-11-27T12:48:11.976Z,-4.72
2022-11-27T12:50:24.076Z,-4.82
2022-11-27T12:52:34.673Z,-4.83
2022-11-27T12:54:54.909Z,-4.85
2022-11-27T12:57:13.362Z,-4.88
2022-11-27T12:59:43.337Z,-4.84
2022-11-27T13:02:02.809Z,-4.82
2022-11-27T13:04:18.596Z,-4.89
2022-11-27T13:06:25.501Z,-5.02
2022-11-27T13:08:36.286Z,-4.97
2022-11-27T13:10:52.828Z,-4.99
2022-11-27T13:13:23.703Z,-5.02
2022-11-27T13:15:25.706Z,-5.20
2022-11-27T13:17:39.341Z,-5.32
2022-11-27T13:19:46.327Z,-5.35
2022-11-27T13:21:49.917Z,-5.35
2022-11-27T13:23:52.354Z,-5.35
2022-11-27T13:25:58.747Z,-5.21
2022-11-27T13:28:05.435Z,-5.27
2022-11-27T13:30:24.029Z,-5.35
2022-11-27T13:32:30.198Z,-5.40
2022-11-27T13:34:42.129Z,-5.35
2022-11-27T13:37:05.764Z,-5.24
2022-11-27T13:39:30.860Z,-5.29
2022-11-27T13:41:46.880Z,-5.31
2022-11-27T13:44:45.113Z,-5.42
2022-11-27T13:47:09.642Z,-5.37
2022-11-27T13:49:48.251Z,-5.32
2022-11-27T13:52:15.803Z,-5.42
2022-11-27T13:54:35.367Z,-5.35
2022-11-27T13:56:43.599Z,-5.41
2022-11-27T13:58:46.002Z,-5.37
2022-11-27T14:00:54.088Z,-5.36
2022-11-27T14:03:01.893Z,-5.34
2022-11-27T14:05:15.413Z,-5.41
2022-11-27T14:07:18.262Z,-5.29
2022-11-27T14:10:17.470Z,-5.43
2022-11-27T14:12:39.156Z,-5.30
2022-11-27T14:15:13.122Z,-5.23
2022-11-27T14:17:37.883Z,-5.18
2022-11-27T14:19:46.685Z,-5.20
2022-11-27T14:21:55.353Z,-5.16
2022-11-27T14:24:09.968Z,-5.37
2022-11-27T14:26:24.530Z,-5.29
2022-11-27T14:28:39.296Z,-5.26
2022-11-27T14:30:52.325Z,-5.31
2022-11-27T14:32:58.307Z,-5.39
2022-11-27T14:35:27.856Z,-5.34
2022-11-27T14:37:35.900Z,-5.28
2022-11-27T14:39:44.073Z,-5.39
2022-11-27T14:41:57.392Z,-5.44
2022-11-27T14:44:14.198Z,-5.49
2022-11-27T14:46:22.102Z,-5.50
2022-11-27T14:48:27.485Z,-5.36
2022-11-27T14:50:29.868Z,-5.37
2022-11-27T14:52:32.044Z,-5.44
2022-11-27T14:54:39.411Z,-5.32
2022-11-27T14:56:50.005Z,-5.44
2022-11-27T14:58:54.747Z,-5.38
2022-11-27T15:01:05.544Z,-5.42
2022-11-27T15:03:14.164Z,-5.46
2022-11-27T15:05:29.777Z,-5.56
2022-11-27T15:07:46.564Z,-5.46
2022-11-27T15:10:14.056Z,-5.36
2022-11-27T15:12:34.419Z,-5.40
2022-11-27T15:15:18.196Z,-5.27
2022-11-27T15:17:49.438Z,-5.23
2022-11-27T15:20:18.519Z,-5.30
2022-11-27T15:22:33.135Z,-5.25
2022-11-27T15:24:49.939Z,-5.42
2022-11-27T15:27:13.664Z,-5.24
2022-11-27T15:29:37.039Z,-5.20
2022-11-27T15:32:03.348Z,-5.30
2022-11-27T15:34:31.269Z,-5.31
2022-11-27T15:36:56.707Z,-5.19
2022-11-27T15:39:51.927Z,-5.13
2022-11-27T15:42:10.683Z,-5.17
2022-11-27T15:44:18.256Z,-5.23
2022-11-27T15:46:35.340Z,-5.41
2022-11-27T15:48:38.117Z,-5.24
2022-11-27T15:50:48.229Z,-5.15
2022-11-27T15:53:01.142Z,-5.18
2022-11-27T15:55:06.667Z,-5.12
2022-11-27T15:57:15.766Z,-5.16
2022-11-27T15:59:26.306Z,-5.12
2022-11-27T16:01:31.526Z,-5.00
2022-11-27T16:03:46.731Z,-5.11
2022-11-27T16:06:03.581Z,-5.22
2022-11-27T16:08:11.477Z,-5.16
2022-11-27T16:10:16.972Z,-5.11
2022-11-27T16:12:28.298Z,-5.18
2022-11-27T16:14:30.358Z,-5.06
2022-11-27T16:16:33.047Z,-5.40
2022-11-27T16:18:35.594Z,-5.07
2022-11-27T16:20:37.822Z,-5.10
2022-11-27T16:22:42.724Z,-5.06
2022-11-27T16:24:54.305Z,-5.15
2022-11-27T16:27:07.405Z,-5.18
2022-11-27T16:29:10.645Z,-5.22
2022-11-27T16:31:21.417Z,-5.16
2022-11-27T16:33:31.940Z,-5.12
2022-11-27T16:35:56.373Z,-5.08
2022-11-27T16:38:01.624Z,-5.04
2022-11-27T16:40:08.988Z,-5.02
2022-11-27T16:42:26.597Z,-5.01
2022-11-27T16:44:38.329Z,-5.19
2022-11-27T16:46:46.666Z,-5.10
2022-11-27T16:48:53.301Z,-5.23
2022-11-27T16:51:18.349Z,-5.14
2022-11-27T16:53:24.455Z,-5.18
2022-11-27T16:55:28.039Z,-5.17
2022-11-27T16:57:37.168Z,-5.08
2022-11-27T16:59:53.747Z,-5.16
2022-11-27T17:02:03.503Z,-4.97
2022-11-27T17:04:14.944Z,-4.90
2022-11-27T17:06:42.099Z,-4.96
2022-11-27T17:08:47.067Z,-5.05
2022-11-27T17:10:49.267Z,-5.14
2022-11-27T17:13:00.100Z,-5.08
2022-11-27T17:15:02.691Z,-5.22
2022-11-27T17:17:06.704Z,-5.11
2022-11-27T17:19:17.566Z,-5.15
2022-11-27T17:21:40.840Z,-5.22
2022-11-27T17:23:48.118Z,-5.13
2022-11-27T17:26:34.130Z,-5.13
2022-11-27T17:28:59.215Z,-5.32
2022-11-27T17:31:21.782Z,-5.22
2022-11-27T17:33:30.040Z,-5.27
2022-11-27T17:35:32.221Z,-5.19
2022-11-27T17:37:34.486Z,-5.27
2022-11-27T17:39:37.818Z,-5.30
2022-11-27T17:41:42.646Z,-5.19
2022-11-27T17:43:48.317Z,-5.20
2022-11-27T17:46:03.406Z,-5.12
2022-11-27T17:48:05.956Z,-5.08
2022-11-27T17:50:11.226Z,-5.01
2022-11-27T17:52:22.273Z,-5.06
2022-11-27T17:54:24.703Z,-4.99
2022-11-27T17:56:31.948Z,-4.90
2022-11-27T17:58:34.611Z,-4.94
2022-11-27T18:00:49.507Z,-5.20
2022-11-27T18:03:02.284Z,-5.05
2022-11-27T18:05:12.212Z,-5.15
2022-11-27T18:07:14.456Z,-5.14
2022-11-27T18:09:22.551Z,-5.01
2022-11-27T18:11:40.738Z,-4.99
2022-11-27T18:13:48.845Z,-4.98
2022-11-27T18:15:54.123Z,-5.18
2022-11-27T18:18:14.002Z,-5.17
2022-11-27T18:20:31.718Z,-5.21
2022-11-27T18:22:43.190Z,-5.26
2022-11-27T18:24:48.769Z,-5.36
2022-11-27T18:27:10.190Z,-5.24
2022-11-27T18:29:15.388Z,-5.24
2022-11-27T18:31:20.710Z,-5.26
2022-11-27T18:33:22.870Z,-5.17
2022-11-27T18:35:53.503Z,-5.12
2022-11-27T18:37:55.629Z,-5.13
2022-11-27T18:39:57.919Z,-5.12
2022-11-27T18:42:07.469Z,-5.12
2022-11-27T18:44:27.697Z,-5.37
2022-11-27T18:47:23.024Z,-5.18
2022-11-27T18:49:35.711Z,-5.25
2022-11-27T18:51:54.361Z,-5.35
2022-11-27T18:53:56.736Z,-5.25
2022-11-27T18:56:11.323Z,-5.21
2022-11-27T18:58:25.655Z,-5.30
2022-11-27T19:00:30.499Z,-5.28
2022-11-27T19:02:41.894Z,-5.15
2022-11-27T19:04:47.365Z,-5.14
2022-11-27T19:07:01.820Z,-5.15
2022-11-27T19:09:11.795Z,-5.24
2022-11-27T19:11:19.449Z,-5.30
2022-11-27T19:13:30.836Z,-5.43
2022-11-27T19:15:38.454Z,-5.44
2022-11-27T19:17:43.331Z,-5.39
2022-11-27T19:19:54.864Z,-5.49
2022-11-27T19:22:02.564Z,-5.38
2022-11-27T19:24:11.632Z,-5.40
2022-11-27T19:26:28.080Z,-5.35
2022-11-27T19:28:30.138Z,-5.27
2022-11-27T19:30:42.603Z,-5.23
2022-11-27T19:32:53.824Z,-5.19
2022-11-27T19:35:06.808Z,-5.14
2022-11-27T19:37:09.585Z,-5.28
2022-11-27T19:39:27.417Z,-5.44
2022-11-27T19:41:30.308Z,-5.40
2022-11-27T19:43:41.603Z,-5.21
2022-11-27T19:45:46.736Z,-5.30
2022-11-27T19:48:03.579Z,-5.36
2022-11-27T19:50:18.377Z,-5.40
2022-11-27T19:52:20.604Z,-5.44
2022-11-27T19:54:25.505Z,-5.45
2022-11-27T19:56:30.481Z,-5.50
2022-11-27T19:58:42.719Z,-5.41
2022-11-27T20:00:55.659Z,-5.57
2022-11-27T20:03:09.936Z,-5.50
2022-11-27T20:05:12.200Z,-5.52
2022-11-27T20:07:23.527Z,-5.50
2022-11-27T20:09:36.042Z,-5.48
2022-11-27T20:11:49.272Z,-5.37
2022-11-27T20:14:10.035Z,-5.52
2022-11-27T20:16:27.152Z,-5.47
2022-11-27T20:18:48.212Z,-5.54
2022-11-27T20:20:51.414Z,-5.52
2022-11-27T20:23:02.665Z,-5.59
2022-11-27T20:25:19.479Z,-5.53
2022-11-27T20:27:21.971Z,-5.55
2022-11-27T20:29:33.330Z,-5.45
2022-11-27T20:31:56.277Z,-5.45
2022-11-27T20:34:06.799Z,-5.42
2022-11-27T20:36:45.779Z,-5.53
2022-11-27T20:38:51.054Z,-5.53
2022-11-27T20:40:54.884Z,-5.53
2022-11-27T20:42:59.730Z,-5.47
2022-11-27T20:45:05.262Z,-5.45
2022-11-27T20:47:22.822Z,-5.32
2022-11-27T20:49:28.825Z,-5.42
2022-11-27T20:51:35.931Z,-5.40
2022-11-27T20:53:46.739Z,-5.55
2022-11-27T20:55:51.607Z,-5.47
2022-11-27T20:58:15.012Z,-5.52
2022-11-27T21:00:24.315Z,-5.64
2022-11-27T21:02:41.868Z,-5.66
2022-11-27T21:04:47.337Z,-5.62
2022-11-27T21:07:02.426Z,-5.62
2022-11-27T21:09:30.580Z,-5.57
2022-11-27T21:11:54.728Z,-5.77
2022-11-27T21:14:02.845Z,-5.71
2022-11-27T21:16:27.804Z,-5.69
2022-11-27T21:18:36.367Z,-5.71
2022-11-27T21:20:38.730Z,-5.72
2022-11-27T21:22:47.365Z,-5.77
2022-11-27T21:24:52.751Z,-5.71
2022-11-27T21:27:10.246Z,-5.68
2022-11-27T21:29:31.622Z,-5.72
2022-11-27T21:31:38.813Z,-5.66
2022-11-27T21:33:53.040Z,-5.67
2022-11-27T21:35:58.030Z,-5.74
2022-11-27T21:38:15.195Z,-5.71
2022-11-27T21:40:21.486Z,-5.62
2022-11-27T21:42:45.926Z,-5.55
2022-11-27T21:44:49.353Z,-5.61
2022-11-27T21:47:05.509Z,-5.56
2022-11-27T21:49:25.344Z,-5.58
2022-11-27T21:51:30.616Z,-5.53
2022-11-27T21:54:10.118Z,-5.55
2022-11-27T21:56:16.614Z,-5.59
2022-11-27T21:58:18.816Z,-5.62
2022-11-27T22:00:30.294Z,-5.52
2022-11-27T22:02:35.312Z,-5.51
2022-11-27T22:04:48.171Z,-5.48
2022-11-27T22:06:53.293Z,-5.41
2022-11-27T22:08:58.104Z,-5.42
2022-11-27T22:11:10.332Z,-5.46
2022-11-27T22:13:29.134Z,-5.53
2022-11-27T22:15:42.035Z,-5.48
2022-11-27T22:17:51.211Z,-5.40
2022-11-27T22:20:05.061Z,-5.35
2022-11-27T22:22:07.360Z,-5.40
2022-11-27T22:24:27.225Z,-5.32
2022-11-27T22:26:37.933Z,-5.27
2022-11-27T22:28:43.143Z,-5.36
2022-11-27T22:30:51.213Z,-5.29
2022-11-27T22:32:59.764Z,-5.38
2022-11-27T22:35:11.149Z,-5.24
2022-11-27T22:37:13.686Z,-5.21
2022-11-27T22:39:21.743Z,-5.22
2022-11-27T22:41:32.168Z,-5.34
2022-11-27T22:43:35.775Z,-5.30
2022-11-27T22:45:44.428Z,-5.26
2022-11-27T22:47:46.651Z,-5.26
2022-11-27T22:49:49.661Z,-5.26
2022-11-27T22:51:52.187Z,-5.31
2022-11-27T22:53:56.269Z,-5.36
2022-11-27T22:56:10.970Z,-5.32
2022-11-27T22:58:16.330Z,-5.32
2022-11-27T23:00:18.577Z,-5.30
2022-11-27T23:02:23.847Z,-5.25
2022-11-27T23:04:25.982Z,-5.23
2022-11-27T23:06:28.889Z,-5.28
2022-11-27T23:08:31.052Z,-5.25
2022-11-27T23:10:45.446Z,-5.26
2022-11-27T23:12:47.609Z,-5.25
2022-11-27T23:14:50.026Z,-5.22
2022-11-27T23:16:52.108Z,-5.20
2022-11-27T23:18:54.381Z,-5.29
2022-11-27T23:21:18.161Z,-5.25
2022-11-27T23:23:20.498Z,-5.18
2022-11-27T23:25:22.686Z,-5.29
2022-11-27T23:27:24.894Z,-5.30
2022-11-27T23:29:27.525Z,-5.34
2022-11-27T23:31:34.335Z,-5.35
2022-11-27T23:33:37.391Z,-5.24
2022-11-27T23:35:39.505Z,-5.26
2022-11-27T23:37:41.846Z,-5.19
2022-11-27T23:39:44.116Z,-5.23
2022-11-27T23:41:49.288Z,-5.26
2022-11-27T23:43:52.494Z,-5.16
2022-11-27T23:45:54.874Z,-5.12
2022-11-27T23:47:56.913Z,-5.18
2022-11-27T23:50:02.260Z,-5.23
2022-11-27T23:52:04.990Z,-5.23
2022-11-27T23:54:09.354Z,-5.17
2022-11-27T23:56:14.876Z,-5.18
2022-11-27T23:58:17.081Z,-5.22
